Rogersville, TN (37857)

9:37 AM EDT on August 26, 2016 (GMT -0400)
Bushy Mountain | | Change Station
Active Advisory: Special Statement

Elev 1243 ft 36.37 °N, 82.88 °W | Updated 2 minutes ago

Mostly Cloudy
Mostly Cloudy
76.8 °F
Feels Like 78 °F
N
0.0
Wind Variable Wind from SSW

Today
High -- | Low -- °F
--% Chance of Precip.
Yesterday
High -- | Low -- °F
Precip. -- in
Pressure 30.22 in
Visibility 9.0 miles
Clouds Mostly Cloudy 200 ft
Heat Index 78 °F
Dew Point 73 °F
Humidity 88%
Rainfall 0.00 in
Snow Depth Not available.
6:59 AM 8:07 PM
Waning Crescent, 34% visible
METAR K0VG 261310Z AUTO 00000KT 9SM BKN002 22/21 A3022 RMK AO2
Pressure 30.22 in
Visibility 9.0 miles
Clouds Mostly Cloudy 200 ft
Heat Index 78 °F
Dew Point 73 °F
Humidity 88%
Rainfall 0.00 in
Snow Depth Not available.
6:59 AM 8:07 PM
Waning Crescent, 34% visible
METAR K0VG 261310Z AUTO 00000KT 9SM BKN002 22/21 A3022 RMK AO2

10-Day Weather Forecast

Almanac

Astronomy

Aug. 26, 2016 Rise Set
Actual Time
Civil Twilight
Nautical Twilight
Astronomical Twilight
Moon
Length of Visible Light
Length of Day
Tomorrow will be .
, % of the Moon is Illuminated

Today's Extremes

State Highs State Lows

Community

WunderPhotos

Upload Photos

1,935,084 photos uploaded!

WunderBlog® & News

Nearby

Air Quality

  Air Quality AQ Index Pollutant
Not available.

Snow Depth

Station Depth Elevation

Earthquake Activity

City Distance Mag. Time & Date
Minimum magnitude displayed is 2.5.

Coastal Water Temperatures

Place Temperature

Stations

Nearby Weather Stations

Station Location Temp. Windchill Dew Point Humidity Wind Precip. Elev Updated Type
                   

Watches & Warnings

Special Statement
Issued: 3:32 AM EDT Aug. 26, 2016 – National Weather Service


... Patchy dense fog this morning...

Fog will reduce visibilities to a quarter mile or less in some
spots this morning. The patchy coverage of fog will mean that the
visibility may drop suddenly... so motorists should use caution and
use headlights when passing through dense fog.